createdAt,value
2018-11-25T00:02:11.352Z,25.77
2018-11-25T00:04:40.073Z,25.73
2018-11-25T00:07:08.447Z,28.50
2018-11-25T00:09:36.747Z,29.03
2018-11-25T00:12:05.103Z,28.23
2018-11-25T00:14:33.400Z,24.60
2018-11-25T00:17:01.722Z,28.37
2018-11-25T00:19:30.016Z,28.17
2018-11-25T00:21:58.346Z,29.77
2018-11-25T00:24:26.652Z,26.33
2018-11-25T00:26:55.158Z,26.13
2018-11-25T00:29:23.506Z,25.87
2018-11-25T00:31:51.857Z,28.50
2018-11-25T00:34:20.159Z,27.93
2018-11-25T00:36:48.486Z,26.43
2018-11-25T00:39:16.987Z,27.63
2018-11-25T00:41:45.300Z,28.80
2018-11-25T00:44:13.599Z,29.60
2018-11-25T00:46:42.510Z,27.70
2018-11-25T00:49:10.807Z,26.03
2018-11-25T00:51:39.119Z,27.57
2018-11-25T00:54:07.422Z,27.83
2018-11-25T00:56:35.784Z,28.97
2018-11-25T00:59:04.075Z,27.07
2018-11-25T01:01:32.381Z,29.70
2018-11-25T01:04:00.747Z,25.67
2018-11-25T01:06:29.087Z,25.87
2018-11-25T01:08:57.402Z,25.67
2018-11-25T01:11:25.706Z,27.63
2018-11-25T01:13:54.015Z,28.93
2018-11-25T01:16:22.327Z,25.47
2018-11-25T01:18:50.630Z,30.00
2018-11-25T01:21:18.933Z,26.17
2018-11-25T01:23:47.251Z,27.47
2018-11-25T01:26:15.540Z,26.73
2018-11-25T01:28:43.861Z,24.53
2018-11-25T01:31:12.198Z,25.80
2018-11-25T01:33:40.520Z,25.10
2018-11-25T01:36:08.811Z,29.33
2018-11-25T01:38:37.124Z,27.47
2018-11-25T01:41:05.867Z,26.77
2018-11-25T01:43:34.175Z,26.30
2018-11-25T01:46:02.475Z,23.97
2018-11-25T01:48:30.787Z,25.43
2018-11-25T01:50:59.079Z,26.67
2018-11-25T01:53:27.388Z,25.97
2018-11-25T01:55:55.688Z,25.27
2018-11-25T01:58:24.007Z,26.30
2018-11-25T02:00:52.308Z,26.40
2018-11-25T02:03:20.619Z,25.30
2018-11-25T02:05:48.924Z,21.97
2018-11-25T02:08:17.231Z,25.17
2018-11-25T02:10:45.523Z,24.60
2018-11-25T02:13:13.843Z,27.47
2018-11-25T02:15:42.144Z,28.80
2018-11-25T02:18:10.470Z,24.67
2018-11-25T02:20:39.003Z,26.40
2018-11-25T02:23:07.336Z,27.57
2018-11-25T02:25:35.629Z,23.43
2018-11-25T02:28:03.966Z,27.87
2018-11-25T02:30:32.284Z,30.13
2018-11-25T02:33:00.670Z,29.60
2018-11-25T02:35:28.977Z,28.17
2018-11-25T02:37:57.366Z,30.87
2018-11-25T02:40:25.719Z,32.20
2018-11-25T02:43:05.613Z,31.07
2018-11-25T02:45:33.952Z,33.87
2018-11-25T02:48:02.269Z,33.63
2018-11-25T02:50:31.135Z,31.53
2018-11-25T02:53:02.756Z,29.43
2018-11-25T02:55:31.177Z,36.17
2018-11-25T02:58:00.811Z,29.67
2018-11-25T03:00:27.837Z,34.10
2018-11-25T03:02:56.143Z,30.53
2018-11-25T03:05:24.464Z,34.10
2018-11-25T03:07:52.772Z,32.57
2018-11-25T03:10:21.126Z,30.33
2018-11-25T03:12:49.428Z,31.70
2018-11-25T03:15:18.167Z,33.30
2018-11-25T03:17:46.509Z,28.83
2018-11-25T03:20:15.817Z,29.83
2018-11-25T03:22:44.114Z,31.00
2018-11-25T03:25:20.248Z,30.53
2018-11-25T03:27:48.628Z,29.37
2018-11-25T03:30:17.817Z,26.47
2018-11-25T03:32:47.001Z,25.30
2018-11-25T03:35:15.337Z,26.53
2018-11-25T03:37:43.671Z,26.40
2018-11-25T03:40:13.788Z,25.97
2018-11-25T03:42:42.141Z,24.77
2018-11-25T03:45:12.741Z,23.67
2018-11-25T03:47:41.048Z,22.67
2018-11-25T03:50:10.086Z,26.07
2018-11-25T03:52:38.452Z,25.90
2018-11-25T03:55:15.264Z,22.97
2018-11-25T03:57:43.557Z,22.37
2018-11-25T04:00:20.389Z,25.53
2018-11-25T04:02:49.468Z,26.23
2018-11-25T04:05:17.939Z,21.80
2018-11-25T04:07:46.260Z,24.37
2018-11-25T04:10:16.362Z,22.47
2018-11-25T04:12:44.688Z,20.23
2018-11-25T04:15:18.663Z,22.77
2018-11-25T04:17:47.539Z,21.83
2018-11-25T04:20:16.852Z,20.20
2018-11-25T04:22:45.180Z,21.43
2018-11-25T04:25:13.713Z,19.50
2018-11-25T04:27:42.042Z,20.20
2018-11-25T04:30:11.593Z,19.70
2018-11-25T04:32:39.927Z,21.00
2018-11-25T04:35:10.167Z,24.20
2018-11-25T04:37:38.504Z,20.67
2018-11-25T04:40:08.422Z,19.03
2018-11-25T04:42:36.748Z,16.83
2018-11-25T04:45:05.662Z,17.77
2018-11-25T04:47:33.986Z,16.90
2018-11-25T04:50:02.290Z,20.47
2018-11-25T04:52:30.600Z,17.30
2018-11-25T04:54:58.902Z,18.23
2018-11-25T04:57:27.215Z,16.00
2018-11-25T04:59:55.503Z,15.07
2018-11-25T05:02:23.826Z,17.87
2018-11-25T05:04:52.186Z,14.70
2018-11-25T05:07:20.547Z,13.80
2018-11-25T05:09:48.839Z,14.20
2018-11-25T05:12:17.156Z,14.23
2018-11-25T05:14:45.442Z,13.63
2018-11-25T05:17:13.764Z,12.80
2018-11-25T05:19:42.115Z,14.03
2018-11-25T05:22:10.428Z,15.07
2018-11-25T05:24:38.852Z,11.60
2018-11-25T05:27:07.191Z,12.47
2018-11-25T05:29:35.523Z,12.73
2018-11-25T05:32:03.876Z,14.07
2018-11-25T05:34:32.177Z,13.67
2018-11-25T05:37:00.495Z,11.80
2018-11-25T05:39:28.791Z,12.43
2018-11-25T05:41:57.148Z,13.37
2018-11-25T05:44:25.451Z,11.83
2018-11-25T05:46:53.762Z,13.30
2018-11-25T05:49:22.076Z,12.73
2018-11-25T05:51:50.406Z,11.53
2018-11-25T05:54:18.703Z,14.57
2018-11-25T05:56:47.031Z,14.17
2018-11-25T05:59:15.319Z,12.57
2018-11-25T06:01:43.633Z,11.37
2018-11-25T06:04:11.939Z,11.67
2018-11-25T06:06:40.436Z,12.13
2018-11-25T06:09:09.122Z,13.77
2018-11-25T06:11:37.424Z,14.37
2018-11-25T06:14:05.757Z,15.23
2018-11-25T06:16:34.077Z,13.93
2018-11-25T06:19:02.396Z,14.63
2018-11-25T06:21:30.693Z,14.93
2018-11-25T06:23:59.007Z,13.50
2018-11-25T06:26:27.300Z,12.63
2018-11-25T06:28:55.643Z,15.30
2018-11-25T06:31:23.948Z,14.93
2018-11-25T06:33:52.260Z,13.90
2018-11-25T06:36:20.559Z,13.83
2018-11-25T06:38:48.868Z,14.03
2018-11-25T06:41:17.176Z,16.30
2018-11-25T06:43:45.487Z,15.33
2018-11-25T06:46:14.112Z,12.90
2018-11-25T06:48:42.424Z,13.17
2018-11-25T06:51:10.727Z,13.50
2018-11-25T06:53:39.036Z,17.60
2018-11-25T06:56:07.339Z,15.20
2018-11-25T06:58:35.697Z,14.67
2018-11-25T07:01:04.011Z,16.20
2018-11-25T07:03:32.332Z,15.60
2018-11-25T07:06:00.627Z,14.60
2018-11-25T07:08:28.946Z,16.23
2018-11-25T07:10:57.243Z,16.40
2018-11-25T07:13:25.556Z,16.50
2018-11-25T07:15:53.858Z,13.80
2018-11-25T07:18:22.192Z,16.07
2018-11-25T07:20:50.579Z,16.63
2018-11-25T07:23:18.889Z,13.27
2018-11-25T07:25:47.177Z,15.13
2018-11-25T07:28:18.416Z,16.00
2018-11-25T07:30:43.893Z,15.37
2018-11-25T07:33:12.194Z,15.23
2018-11-25T07:35:40.479Z,15.67
2018-11-25T07:38:08.800Z,27.80
2018-11-25T07:40:37.091Z,18.07
2018-11-25T07:43:05.844Z,15.60
2018-11-25T07:45:34.151Z,18.00
2018-11-25T07:48:02.616Z,14.63
2018-11-25T07:50:30.937Z,15.63
2018-11-25T07:52:59.227Z,18.20
2018-11-25T07:55:27.544Z,17.37
2018-11-25T07:57:57.828Z,18.63
2018-11-25T08:00:26.656Z,19.23
2018-11-25T08:02:55.041Z,17.07
2018-11-25T08:05:24.408Z,16.27
2018-11-25T08:07:52.739Z,17.80
2018-11-25T08:10:21.181Z,18.27
2018-11-25T08:12:49.506Z,18.20
2018-11-25T08:15:18.860Z,17.73
2018-11-25T08:17:47.191Z,18.43
2018-11-25T08:20:17.153Z,15.40
2018-11-25T08:22:45.479Z,19.10
2018-11-25T08:25:17.809Z,19.07
2018-11-25T08:27:46.103Z,17.60
2018-11-25T08:30:18.480Z,18.83
2018-11-25T08:32:46.830Z,18.53
2018-11-25T08:35:15.843Z,17.20
2018-11-25T08:37:44.290Z,21.17
2018-11-25T08:40:14.551Z,18.13
2018-11-25T08:42:42.852Z,17.93
2018-11-25T08:45:12.122Z,21.70
2018-11-25T08:47:40.483Z,17.90
2018-11-25T08:50:16.356Z,17.17
2018-11-25T08:52:46.051Z,19.03
2018-11-25T08:55:17.625Z,17.97
2018-11-25T08:57:46.118Z,19.07
2018-11-25T09:00:18.481Z,16.60
2018-11-25T09:02:47.027Z,21.60
2018-11-25T09:05:15.877Z,21.90
2018-11-25T09:07:44.275Z,19.03
2018-11-25T09:10:15.797Z,21.53
2018-11-25T09:12:44.871Z,23.53
2018-11-25T09:15:14.702Z,17.30
2018-11-25T09:17:43.115Z,23.37
2018-11-25T09:20:13.767Z,19.97
2018-11-25T09:22:42.215Z,18.80
2018-11-25T09:25:14.068Z,20.97
2018-11-25T09:27:42.392Z,19.83
2018-11-25T09:30:14.964Z,19.40
2018-11-25T09:32:43.312Z,22.50
2018-11-25T09:35:11.676Z,21.00
2018-11-25T09:37:40.144Z,26.53
2018-11-25T09:40:10.394Z,25.87
2018-11-25T09:42:38.772Z,24.43
2018-11-25T09:45:11.627Z,28.20
2018-11-25T09:47:40.336Z,25.00
2018-11-25T09:50:11.094Z,24.73
2018-11-25T09:52:40.007Z,26.57
2018-11-25T09:55:12.151Z,24.27
2018-11-25T09:57:42.250Z,26.87
2018-11-25T10:00:19.709Z,22.57
2018-11-25T10:02:48.727Z,21.83
2018-11-25T10:05:18.197Z,23.47
2018-11-25T10:07:48.221Z,20.97
2018-11-25T10:10:18.085Z,25.17
2018-11-25T10:12:46.548Z,21.97
2018-11-25T10:15:15.937Z,24.27
2018-11-25T10:17:45.131Z,23.83
2018-11-25T10:20:20.853Z,23.60
2018-11-25T10:22:49.355Z,21.77
2018-11-25T10:25:18.035Z,22.43
2018-11-25T10:27:46.777Z,19.37
2018-11-25T10:30:16.862Z,23.97
2018-11-25T10:32:45.836Z,22.73
2018-11-25T10:35:14.199Z,24.83
2018-11-25T10:37:42.501Z,23.53
2018-11-25T10:40:11.943Z,22.30
2018-11-25T10:42:40.299Z,24.47
2018-11-25T10:45:11.875Z,24.90
2018-11-25T10:47:40.204Z,23.97
2018-11-25T10:50:10.172Z,24.67
2018-11-25T10:52:38.472Z,24.43
2018-11-25T10:55:08.460Z,25.20
2018-11-25T10:57:36.931Z,22.13
2018-11-25T11:00:11.188Z,21.53
2018-11-25T11:02:44.832Z,23.97
2018-11-25T11:05:18.544Z,24.07
2018-11-25T11:07:46.856Z,22.90
2018-11-25T11:10:15.155Z,26.67
2018-11-25T11:12:43.475Z,22.83
2018-11-25T11:15:12.065Z,24.20
2018-11-25T11:17:40.391Z,22.27
2018-11-25T11:20:09.858Z,21.40
2018-11-25T11:22:38.201Z,24.53
2018-11-25T11:25:07.939Z,22.77
2018-11-25T11:27:36.312Z,22.70
2018-11-25T11:30:06.935Z,22.00
2018-11-25T11:32:35.354Z,21.13
2018-11-25T11:35:03.938Z,24.33
2018-11-25T11:37:32.251Z,22.03
2018-11-25T11:40:00.553Z,17.47
2018-11-25T11:42:29.008Z,19.90
2018-11-25T11:44:57.211Z,17.97
2018-11-25T11:47:25.538Z,14.83
2018-11-25T11:49:53.848Z,15.13
2018-11-25T11:52:22.169Z,16.33
2018-11-25T11:54:50.478Z,15.63
2018-11-25T11:57:18.796Z,16.87
2018-11-25T11:59:47.151Z,14.37
2018-11-25T12:02:15.467Z,15.13
2018-11-25T12:04:43.765Z,16.53
2018-11-25T12:07:12.083Z,16.17
2018-11-25T12:09:40.379Z,15.40
2018-11-25T12:12:08.689Z,14.70
2018-11-25T12:14:36.972Z,14.63
2018-11-25T12:17:05.656Z,16.50
2018-11-25T12:19:33.966Z,14.63
2018-11-25T12:22:02.292Z,20.77
2018-11-25T12:24:30.583Z,17.83
2018-11-25T12:26:58.904Z,19.70
2018-11-25T12:29:27.222Z,15.60
2018-11-25T12:31:55.548Z,17.37
2018-11-25T12:34:23.860Z,18.53
2018-11-25T12:36:53.415Z,16.60
2018-11-25T12:39:20.505Z,14.47
2018-11-25T12:41:48.848Z,14.17
2018-11-25T12:44:17.148Z,14.77
2018-11-25T12:46:45.467Z,13.90
2018-11-25T12:49:13.763Z,15.10
2018-11-25T12:51:42.103Z,14.97
2018-11-25T12:54:10.600Z,16.10
2018-11-25T12:56:38.905Z,16.67
2018-11-25T12:59:07.241Z,16.97
2018-11-25T13:01:35.552Z,17.80
2018-11-25T13:04:03.906Z,15.33
2018-11-25T13:06:32.222Z,18.80
2018-11-25T13:09:00.552Z,19.23
2018-11-25T13:11:28.851Z,17.17
2018-11-25T13:13:57.171Z,18.03
2018-11-25T13:16:25.509Z,18.60
2018-11-25T13:18:53.940Z,18.47
2018-11-25T13:21:22.236Z,20.47
2018-11-25T13:23:50.556Z,19.80
2018-11-25T13:26:18.863Z,21.73
2018-11-25T13:28:48.027Z,20.87
2018-11-25T13:31:16.347Z,23.20
2018-11-25T13:33:44.672Z,25.33
2018-11-25T13:36:13.012Z,24.87
2018-11-25T13:38:41.338Z,26.83
2018-11-25T13:41:09.656Z,25.67
2018-11-25T13:43:37.980Z,27.17
2018-11-25T13:46:06.285Z,27.67
2018-11-25T13:48:34.622Z,23.47
2018-11-25T13:51:08.090Z,32.10
2018-11-25T13:53:36.448Z,26.63
2018-11-25T13:56:04.834Z,26.47
2018-11-25T13:58:33.180Z,29.23
2018-11-25T14:01:01.556Z,27.87
2018-11-25T14:03:32.742Z,27.97
2018-11-25T14:06:01.098Z,27.23
2018-11-25T14:08:29.696Z,31.83
2018-11-25T14:11:10.274Z,35.97
2018-11-25T14:13:38.601Z,29.70
2018-11-25T14:16:08.351Z,31.30
2018-11-25T14:18:36.677Z,33.50
2018-11-25T14:21:05.424Z,30.70
2018-11-25T14:23:33.746Z,32.47
2018-11-25T14:26:07.340Z,35.30
2018-11-25T14:28:35.666Z,34.10
2018-11-25T14:31:04.008Z,31.43
2018-11-25T14:33:32.552Z,37.40
2018-11-25T14:36:00.868Z,37.03
2018-11-25T14:38:29.204Z,36.43
2018-11-25T14:40:57.505Z,32.53
2018-11-25T14:43:25.855Z,37.50
2018-11-25T14:45:54.161Z,34.20
2018-11-25T14:48:22.479Z,34.83
2018-11-25T14:50:50.796Z,31.27
2018-11-25T14:53:19.151Z,31.77
2018-11-25T14:55:47.543Z,31.43
2018-11-25T14:58:15.873Z,35.80
2018-11-25T15:00:44.206Z,35.70
2018-11-25T15:03:12.520Z,34.97
2018-11-25T15:05:44.440Z,34.53
2018-11-25T15:08:15.420Z,33.70
2018-11-25T15:10:43.719Z,33.90
2018-11-25T15:13:12.025Z,34.27
2018-11-25T15:15:40.439Z,34.83
2018-11-25T15:18:09.461Z,35.10
2018-11-25T15:20:37.803Z,33.07
2018-11-25T15:23:09.563Z,32.73
2018-11-25T15:25:40.366Z,35.43
2018-11-25T15:28:08.892Z,37.93
2018-11-25T15:30:37.248Z,31.93
2018-11-25T15:33:05.696Z,31.63
2018-11-25T15:35:34.053Z,34.83
2018-11-25T15:38:02.500Z,33.80
2018-11-25T15:40:33.215Z,36.33
2018-11-25T15:43:01.584Z,33.73
2018-11-25T15:45:30.171Z,39.17
2018-11-25T15:48:07.382Z,36.07
2018-11-25T15:50:35.748Z,35.43
2018-11-25T15:53:04.941Z,33.73
2018-11-25T15:55:33.365Z,33.93
2018-11-25T15:58:01.672Z,31.43
2018-11-25T16:00:29.995Z,36.30
2018-11-25T16:02:58.295Z,35.43
2018-11-25T16:05:32.013Z,37.47
2018-11-25T16:08:00.347Z,33.87
2018-11-25T16:10:28.675Z,39.50
2018-11-25T16:12:57.019Z,35.73
2018-11-25T16:15:26.770Z,37.60
2018-11-25T16:17:55.123Z,35.87
2018-11-25T16:20:26.472Z,35.77
2018-11-25T16:22:59.327Z,37.40
2018-11-25T16:25:40.128Z,37.60
2018-11-25T16:28:13.291Z,32.40
2018-11-25T16:30:41.627Z,37.27
2018-11-25T16:33:09.956Z,38.20
2018-11-25T16:35:38.288Z,40.53
2018-11-25T16:38:08.206Z,34.57
2018-11-25T16:40:36.624Z,34.53
2018-11-25T16:43:05.423Z,35.20
2018-11-25T16:45:33.740Z,38.90
2018-11-25T16:48:02.251Z,35.90
2018-11-25T16:50:30.671Z,36.73
2018-11-25T16:52:59.006Z,35.63
2018-11-25T16:55:27.315Z,35.27
2018-11-25T16:57:55.640Z,40.17
2018-11-25T17:00:23.964Z,37.60
2018-11-25T17:02:52.260Z,36.80
2018-11-25T17:05:23.580Z,38.70
2018-11-25T17:07:55.969Z,37.03
2018-11-25T17:10:24.289Z,38.60
2018-11-25T17:12:52.611Z,39.17
2018-11-25T17:15:22.455Z,37.30
2018-11-25T17:17:52.227Z,33.53
2018-11-25T17:20:20.840Z,38.80
2018-11-25T17:22:49.271Z,37.43
2018-11-25T17:25:17.692Z,34.57
2018-11-25T17:27:46.741Z,35.70
2018-11-25T17:30:17.141Z,33.50
2018-11-25T17:32:46.120Z,35.00
2018-11-25T17:35:18.580Z,30.90
2018-11-25T17:37:47.056Z,33.93
2018-11-25T17:40:15.392Z,32.03
2018-11-25T17:42:43.708Z,39.27
2018-11-25T17:45:13.152Z,35.97
2018-11-25T17:47:41.907Z,43.78
2018-11-25T17:50:15.889Z,36.47
2018-11-25T17:52:44.440Z,33.77
2018-11-25T17:55:13.681Z,35.57
2018-11-25T17:57:45.413Z,40.93
2018-11-25T18:00:19.264Z,39.17
2018-11-25T18:02:47.592Z,35.87
2018-11-25T18:05:15.919Z,37.20
2018-11-25T18:07:45.116Z,40.93
2018-11-25T18:10:13.937Z,38.73
2018-11-25T18:12:42.462Z,39.10
2018-11-25T18:15:14.584Z,35.27
2018-11-25T18:17:47.472Z,39.63
2018-11-25T18:20:15.774Z,38.53
2018-11-25T18:22:46.388Z,40.67
2018-11-25T18:25:14.701Z,41.83
2018-11-25T18:27:43.171Z,44.37
2018-11-25T18:30:15.115Z,44.00
2018-11-25T18:32:44.041Z,42.27
2018-11-25T18:35:12.614Z,39.00
2018-11-25T18:37:41.660Z,40.10
2018-11-25T18:40:12.132Z,45.20
2018-11-25T18:42:40.710Z,45.97
2018-11-25T18:45:13.993Z,37.23
2018-11-25T18:47:43.500Z,50.93
2018-11-25T18:50:13.195Z,41.37
2018-11-25T18:52:42.105Z,43.97
2018-11-25T18:55:09.384Z,41.93
2018-11-25T18:57:37.707Z,44.33
2018-11-25T19:00:09.984Z,41.47
2018-11-25T19:02:40.547Z,44.50
2018-11-25T19:05:08.903Z,44.93
2018-11-25T19:07:37.259Z,41.07
2018-11-25T19:10:12.345Z,37.37
2018-11-25T19:12:44.313Z,41.27
2018-11-25T19:15:10.533Z,47.43
2018-11-25T19:17:38.868Z,39.77
2018-11-25T19:20:17.241Z,41.93
2018-11-25T19:22:45.572Z,42.20
2018-11-25T19:25:16.121Z,48.23
2018-11-25T19:27:45.372Z,47.20
2018-11-25T19:30:15.138Z,44.33
2018-11-25T19:32:44.659Z,41.53
2018-11-25T19:35:13.956Z,45.57
2018-11-25T19:37:43.061Z,45.60
2018-11-25T19:40:14.258Z,43.33
2018-11-25T19:42:43.105Z,38.70
2018-11-25T19:45:12.988Z,39.33
2018-11-25T19:47:41.312Z,41.17
2018-11-25T19:50:11.695Z,44.00
2018-11-25T19:52:40.090Z,39.10
2018-11-25T19:55:08.467Z,48.50
2018-11-25T19:57:36.787Z,43.47
2018-11-25T20:00:14.571Z,38.83
2018-11-25T20:02:42.944Z,44.00
2018-11-25T20:05:12.401Z,37.80
2018-11-25T20:07:41.056Z,39.20
2018-11-25T20:10:11.468Z,43.63
2018-11-25T20:12:40.156Z,45.83
2018-11-25T20:15:09.860Z,47.73
2018-11-25T20:17:38.222Z,46.70
2018-11-25T20:20:14.770Z,42.77
2018-11-25T20:22:43.194Z,45.93
2018-11-25T20:25:12.465Z,42.30
2018-11-25T20:27:44.265Z,47.10
2018-11-25T20:30:14.821Z,48.83
2018-11-25T20:32:48.396Z,47.77
2018-11-25T20:35:17.646Z,44.47
2018-11-25T20:37:52.407Z,46.43
2018-11-25T20:40:20.763Z,44.53
2018-11-25T20:42:49.298Z,40.70
2018-11-25T20:46:22.543Z,46.77
2018-11-25T20:48:50.860Z,45.40
2018-11-25T20:51:23.930Z,44.33
2018-11-25T20:53:58.209Z,39.90
2018-11-25T20:56:26.516Z,46.87
2018-11-25T20:58:54.867Z,45.50
2018-11-25T21:01:23.235Z,48.17
2018-11-25T21:03:51.889Z,44.00
2018-11-25T21:06:20.188Z,41.50
2018-11-25T21:08:48.515Z,43.87
2018-11-25T21:11:17.164Z,40.13
2018-11-25T21:13:45.599Z,40.13
2018-11-25T21:16:13.904Z,38.47
2018-11-25T21:18:42.267Z,37.77
2018-11-25T21:21:10.872Z,40.17
2018-11-25T21:23:39.544Z,35.90
2018-11-25T21:26:07.928Z,43.77
2018-11-25T21:28:36.560Z,41.60
2018-11-25T21:31:05.572Z,45.30
2018-11-25T21:33:34.203Z,45.13
2018-11-25T21:36:02.744Z,37.97
2018-11-25T21:38:31.044Z,38.20
2018-11-25T21:40:59.391Z,41.80
2018-11-25T21:43:27.700Z,39.97
2018-11-25T21:45:56.176Z,39.17
2018-11-25T21:48:24.496Z,39.80
2018-11-25T21:50:53.082Z,38.13
2018-11-25T21:53:21.628Z,41.17
2018-11-25T21:58:18.391Z,42.60
2018-11-25T22:00:46.720Z,43.50
2018-11-25T22:03:15.020Z,45.73
2018-11-25T22:05:43.492Z,48.60
2018-11-25T22:08:11.788Z,42.00
2018-11-25T22:10:40.270Z,44.27
2018-11-25T22:13:08.595Z,40.57
2018-11-25T22:15:36.944Z,46.27
2018-11-25T22:18:05.300Z,38.97
2018-11-25T22:20:33.621Z,46.33
2018-11-25T22:23:01.922Z,41.77
2018-11-25T22:25:30.252Z,39.17
2018-11-25T22:27:58.681Z,41.27
2018-11-25T22:30:27.033Z,36.80
2018-11-25T22:32:55.335Z,40.47
2018-11-25T22:35:24.078Z,39.03
2018-11-25T22:37:52.378Z,35.70
2018-11-25T22:40:20.923Z,36.43
2018-11-25T22:42:50.481Z,40.50
2018-11-25T22:45:21.063Z,37.80
2018-11-25T22:47:49.365Z,38.97
2018-11-25T22:50:19.879Z,47.98
2018-11-25T22:52:48.442Z,42.83
2018-11-25T22:55:18.076Z,33.17
2018-11-25T22:57:46.380Z,39.03
2018-11-25T23:00:21.266Z,35.83
2018-11-25T23:02:49.581Z,38.80
2018-11-25T23:05:29.262Z,41.77
2018-11-25T23:07:57.567Z,37.50
2018-11-25T23:10:25.903Z,41.37
2018-11-25T23:12:54.229Z,37.33
2018-11-25T23:15:22.581Z,37.60
2018-11-25T23:17:50.881Z,41.90
2018-11-25T23:20:19.214Z,39.13
2018-11-25T23:22:47.523Z,36.90
2018-11-25T23:25:15.851Z,36.87
2018-11-25T23:27:44.235Z,38.27
2018-11-25T23:30:12.592Z,40.47
2018-11-25T23:32:40.917Z,38.60
2018-11-25T23:35:14.847Z,39.67
2018-11-25T23:37:43.190Z,37.73
2018-11-25T23:40:11.575Z,37.13
2018-11-25T23:42:39.903Z,42.33
2018-11-25T23:45:12.602Z,36.53
2018-11-25T23:47:40.955Z,43.93
2018-11-25T23:50:10.448Z,38.10
2018-11-25T23:52:38.893Z,38.53
2018-11-25T23:55:10.579Z,37.83
2018-11-25T23:57:39.032Z,39.50
